• Join FlightAware (Why Join?)
  • Login
  • US Flag 
10:26AM EDT


 

Airport Tracker/Info


-or-


 

Live Flight TrackerFlight Track Log ✈ N960DL ✈ 12-Apr-2013 ✈ KPHF - KATL

Flight Track Log - Related Links

Times and Time Zones

All times are in EDT time to prevent confusion due to time zone crossing. See the N960DL flight status page for this flight to view local times or setup timezone preferences in your user account.

Time Position Orientation Groundspeed Altitude Reporting Facility
EDT Latitude Longitude Course Direction KTS MPH feet Rate Location/Type
08:30AM 37.1183 -76.5192 245° Southwest 151 174 1,300  Level Washington Center
08:31AM 37.0928 -76.5867 245° Southwest 221 254 3,000 2,040 Climbing Washington Center
08:33AM 37.0278 -76.6350 211° Southwest 218 251 6,300 2,760 Climbing Washington Center
08:34AM 36.9753 -76.6786 214° Southwest 229 264 9,200 2,280 Climbing Washington Center
08:35AM 36.9244 -76.7428 225° Southwest 241 277 10,900 1,920 Climbing Washington Center
08:36AM 36.8697 -76.8147 226° Southwest 266 306 13,100 2,100 Climbing Washington Center
08:37AM 36.8103 -76.8917 226° Southwest 294 338 15,100 2,280 Climbing Washington Center
08:38AM 36.7594 -76.9789 234° Southwest 309 356 17,700 2,280 Climbing Washington Center
08:39AM 36.7144 -77.0714 239° Southwest 319 367 19,700 1,740 Climbing Washington Center
08:40AM 36.6653 -77.1664 237° Southwest 324 373 21,200 1,260 Climbing Washington Center
08:41AM 36.6139 -77.2686 238° Southwest 340 391 22,300 720 Climbing Washington Center
08:42AM 36.5642 -77.3736 240° Southwest 348 400 22,700 480 Climbing Washington Center
08:43AM 36.5083 -77.4861 238° Southwest 365 420 23,300 600 Climbing Washington Center
08:44AM 36.4478 -77.6086 238° Southwest 395 455 24,000 1,200 Climbing Washington Center
08:45AM 36.3958 -77.7183 240° Southwest 402 463 25,700 1,620 Climbing Washington Center
08:46AM 36.3147 -77.8192 225° Southwest 409 471 27,300 1,500 Climbing Washington Center
08:47AM 36.2275 -77.9067 219° Southwest 409 471 28,700 1,320 Climbing Washington Center
08:48AM 36.1342 -77.9889 215° Southwest 409 471 30,000 600 Climbing Washington Center
08:49AM 36.0469 -78.0683 216° Southwest 409 471 30,000  Level Washington Center
08:50AM 35.9578 -78.1478 216° Southwest 404 465 30,000  Level Washington Center
08:51AM 35.8706 -78.2269 216° Southwest 399 459 30,000  Level Washington Center
08:52AM 35.7811 -78.3086 217° Southwest 399 459 30,000  Level Washington Center
08:53AM 35.6917 -78.3872 216° Southwest 399 459 30,000  Level Washington Center
08:54AM 35.5892 -78.4783 216° Southwest 406 467 30,000  Level Washington Center
08:55AM 35.4997 -78.5567 215° Southwest 411 473 30,000  Level Washington Center
08:56AM 35.4078 -78.6400 216° Southwest 411 473 30,000  Level Washington Center
08:57AM 35.3139 -78.7203 215° Southwest 411 473 30,000  Level Washington Center
08:58AM 35.2222 -78.8006 216° Southwest 416 479 30,000  Level Washington Center
08:59AM 35.1325 -78.8783 215° Southwest 416 479 30,000  Level Washington Center
09:00AM 35.0447 -78.9558 216° Southwest 416 479 30,000  Level Washington Center
09:01AM 34.9547 -79.0358 216° Southwest 416 479 30,000  Level Washington Center
09:02AM 34.8647 -79.1131 215° Southwest 416 479 30,000  Level Washington Center
09:04AM 34.6508 -79.2936 215° Southwest 412 474 30,000  Level Jacksonville Center
09:05AM 34.5722 -79.3878 225° Southwest 407 468 30,000  Level Jacksonville Center
09:06AM 34.5275 -79.5056 245° Southwest 388 447 30,000  Level Jacksonville Center
09:07AM 34.4828 -79.6281 246° West 393 452 30,000  Level Jacksonville Center
09:08AM 34.4381 -79.7583 247° West 386 444 30,000  Level Jacksonville Center
09:09AM 34.3928 -79.8756 245° Southwest 386 444 30,000  Level Jacksonville Center
09:10AM 34.3478 -80.0003 246° West 386 444 30,000  Level Jacksonville Center
09:11AM 34.3006 -80.1225 245° Southwest 391 450 30,000  Level Jacksonville Center
09:12AM 34.2531 -80.2447 245° Southwest 397 457 30,000  Level Jacksonville Center
09:13AM 34.2053 -80.3642 244° Southwest 397 457 30,000  Level Jacksonville Center
09:14AM 34.1597 -80.4808 245° Southwest 403 464 30,000  Level Jacksonville Center
09:15AM 34.1119 -80.6000 244° Southwest 398 458 30,000  Level Jacksonville Center
09:16AM 34.0681 -80.7192 246° West 398 458 30,000  Level Jacksonville Center
09:17AM 34.0200 -80.8381 244° Southwest 398 458 30,000  Level Jacksonville Center
09:18AM 33.9739 -80.9569 245° Southwest 398 458 30,000  Level Jacksonville Center
09:19AM 33.9297 -81.0703 245° Southwest 393 452 30,000  Level Jacksonville Center
09:20AM 33.8853 -81.1764 243° Southwest 388 447 30,000  Level Jacksonville Center
09:21AM 33.8367 -81.2950 244° Southwest 388 447 30,000  Level Jacksonville Center
09:23AM 33.7375 -81.5358 244° Southwest 379 436 30,000  Level Atlanta Center
09:24AM 33.6919 -81.6569 246° West 391 450 30,000  Level Atlanta Center
09:25AM 33.6461 -81.7731 245° Southwest 391 450 30,000  Level Atlanta Center
09:26AM 33.6086 -81.8939 250° West 386 444 30,000  Level Atlanta Center
09:27AM 33.5708 -82.0144 249° West 386 444 30,000 -60 Level Atlanta Center
09:28AM 33.5353 -82.1372 251° West 391 450 29,900 -900 Descending Atlanta Center
09:29AM 33.4975 -82.2603 250° West 391 450 28,200 -960 Descending Atlanta Center
09:30AM 33.4575 -82.3881 249° West 396 456 28,000 -600 Descending Atlanta Center
09:31AM 33.4217 -82.5106 251° West 404 465 27,100 -960 Descending Atlanta Center
09:32AM 33.3853 -82.6308 250° West 398 458 26,100 -780 Descending Atlanta Center
09:33AM 33.3472 -82.7556 250° West 392 451 25,600 -600 Descending Atlanta Center
09:34AM 33.3211 -82.8631 254° West 392 451 25,000 -720 Descending Atlanta Center
09:35AM 33.3078 -82.9997 263° West 382 440 24,200 -1,200 Descending Atlanta Center
09:36AM 33.2942 -83.1217 262° West 382 440 22,700 -1,740 Descending Atlanta Center
09:37AM 33.2822 -83.2311 263° West 374 430 20,800 -2,160 Descending Atlanta Center
09:38AM 33.2683 -83.3456 262° West 361 415 18,400 -2,460 Descending Atlanta Center
09:39AM 33.2586 -83.4600 264° West 353 406 15,900 -2,400 Descending Atlanta Center
09:40AM 33.2444 -83.5719 261° West 353 406 13,600 -2,040 Descending Atlanta Center
09:41AM 33.2333 -83.6833 263° West 324 373 12,000 -840 Descending Atlanta TRACON
09:42AM 33.2167 -83.7833 259° West 306 352 12,000 -300 Level Atlanta TRACON
09:43AM 33.2500 -83.8667 296° West 286 329 11,500 -660 Descending Atlanta TRACON
09:44AM 33.3000 -83.9333 312° West 288 331 10,700 -1,020 Descending Atlanta TRACON
09:45AM 33.3500 -84.0167 306° West 276 318 9,500 -1,500 Descending Atlanta TRACON
09:46AM 33.4000 -84.0833 312° West 286 329 7,700 -1,440 Descending Atlanta TRACON
09:47AM 33.4333 -84.1500 301° West 266 306 6,800 -900 Descending Atlanta TRACON
09:48AM 33.5000 -84.1833 337° Northwest 258 297 6,000 -900 Descending Atlanta TRACON
09:49AM 33.5500 -84.1500 29° Northeast 276 318 5,200 -780 Descending Atlanta TRACON
09:50AM 33.5667 -84.0667 76° East 231 266 4,500 -600 Descending Atlanta TRACON
09:51AM 33.5500 -84.0000 107° East 222 255 4,000 -300 Descending Atlanta TRACON
09:52AM 33.5833 -83.9667 40° Northeast 211 243 4,000  Level Atlanta TRACON
09:53AM 33.6000 -84.0167 292° West 162 186 4,000 -300 Level Atlanta TRACON
09:54AM 33.6167 -84.0667 292° West 168 193 3,500 -360 Descending Atlanta TRACON
09:56AM 33.6167 -84.1833 270° West 169 194 3,000 -180 Descending Atlanta TRACON
09:56AM 33.6167 -84.2333 270° West 171 197 3,000 -60 Level Atlanta TRACON
09:58AM 33.6167 -84.3000 270° West 172 198 2,900 -420 Descending Atlanta TRACON
09:58AM 33.6167 -84.3500 270° West 160 184 2,200 -840 Descending Atlanta TRACON
09:59AM 33.6167 -84.4000 270° West 142 163 1,400 -840 Descending Atlanta TRACON
10:01AM 33.6333 -84.4167 283° West  Level FlightAware Approximate
10:08AM 33.6367 -84.4279 283° West  Level Estimated